CYPA

Prince Albert Glass Field Airport

Prince Albert, Saskatchewan, Canada
METAR CYPA 232200Z 21018KT 15SM FEW150 SCT250 M08/M13 A2985 RMK AC1CI3 SLP150
Observed Flight Rules
Feb-23 @ 22:00 UTC (33 minutes ago) Visual Flight Rules
Wind Visibility Clouds
210° at 18 knots 15 miles
  • Few at 15,000' AGL
  • Scattered at 25,000' AGL
Temperatures Readings
Current -8°C / 18°F
Dewpoint -13°C / 9°F
Humidity 68%
Altimeter 29.85" Hg
Pressure 1015 hPa
Elevation 428
METAR CYPA 232200Z 21018KT 15SM FEW150 SCT250 M08/M13 A2985 RMK AC1CI3 SLP150
Observed Flight Rules
Feb-23 @ 22:00 UTC
(33 minutes ago)
VFR
Wind Visibility
210° at 18 knots 15 miles
Clouds
  • Few at 15,000' AGL
  • Scattered at 25,000' AGL
Temperature Dewpoint
-8°C / 18°F -13°C / 9°F
Humidity Altimeter Pressure
68% 29.85" Hg 1015 hPa